createdAt,value
2023-03-29T00:00:16.762Z,9.51
2023-03-29T00:00:28.776Z,9.54
2023-03-29T00:00:40.946Z,9.55
2023-03-29T00:01:00.209Z,9.57
2023-03-29T00:01:12.516Z,9.59
2023-03-29T00:01:44.329Z,9.63
2023-03-29T00:01:56.812Z,9.64
2023-03-29T00:02:09.315Z,9.65
2023-03-29T00:02:21.523Z,9.66
2023-03-29T00:02:33.655Z,9.65
2023-03-29T00:02:48.414Z,9.62
2023-03-29T00:03:02.551Z,9.64
2023-03-29T00:03:14.884Z,9.62
2023-03-29T00:03:27.800Z,9.64
2023-03-29T00:03:40.337Z,9.64
2023-03-29T00:03:54.014Z,9.60
2023-03-29T00:04:06.788Z,9.60
2023-03-29T00:04:22.069Z,9.62
2023-03-29T00:04:34.319Z,9.63
2023-03-29T00:04:46.968Z,9.64
2023-03-29T00:05:03.937Z,9.63
2023-03-29T00:05:18.153Z,9.64
2023-03-29T00:05:33.976Z,9.60
2023-03-29T00:05:46.388Z,9.59
2023-03-29T00:06:03.061Z,9.59
2023-03-29T00:06:21.958Z,9.60
2023-03-29T00:06:34.068Z,9.62
2023-03-29T00:06:47.836Z,9.63
2023-03-29T00:07:04.140Z,9.63
2023-03-29T00:07:16.216Z,9.64
2023-03-29T00:07:30.233Z,9.65
2023-03-29T00:07:42.731Z,9.64
2023-03-29T00:07:54.629Z,9.65
2023-03-29T00:08:07.517Z,9.64
2023-03-29T00:08:22.038Z,9.65
2023-03-29T00:08:34.151Z,9.66
2023-03-29T00:08:46.126Z,9.66
2023-03-29T00:08:58.822Z,9.66
2023-03-29T00:09:11.287Z,9.68
2023-03-29T00:09:26.536Z,9.67
2023-03-29T00:09:38.891Z,9.68
2023-03-29T00:09:50.771Z,9.69
2023-03-29T00:10:06.474Z,9.66
2023-03-29T00:10:18.965Z,9.60
2023-03-29T00:10:32.642Z,9.56
2023-03-29T00:10:49.129Z,9.58
2023-03-29T00:11:01.537Z,9.59
2023-03-29T00:11:13.845Z,9.61
2023-03-29T00:11:27.152Z,9.58
2023-03-29T00:11:39.481Z,9.53
2023-03-29T00:11:51.409Z,9.54
2023-03-29T00:12:06.160Z,9.54
2023-03-29T00:12:18.090Z,9.56
2023-03-29T00:12:30.792Z,9.57
2023-03-29T00:12:42.753Z,9.57
2023-03-29T00:12:54.730Z,9.60
2023-03-29T00:13:06.687Z,9.60
2023-03-29T00:13:18.630Z,9.62
2023-03-29T00:13:30.695Z,9.63
2023-03-29T00:13:43.266Z,9.62
2023-03-29T00:13:55.349Z,9.62
2023-03-29T00:14:07.350Z,9.59
2023-03-29T00:14:19.295Z,9.59
2023-03-29T00:14:31.454Z,9.59
2023-03-29T00:14:43.402Z,9.58
2023-03-29T00:14:55.380Z,9.60
2023-03-29T00:15:08.329Z,9.59
2023-03-29T00:15:21.703Z,9.60
2023-03-29T00:15:33.671Z,9.62
2023-03-29T00:15:46.585Z,9.63
2023-03-29T00:15:58.485Z,9.61
2023-03-29T00:16:10.609Z,9.58
2023-03-29T00:16:22.728Z,9.52
2023-03-29T00:16:35.278Z,9.56
2023-03-29T00:16:47.374Z,9.56
2023-03-29T00:16:59.503Z,9.57
2023-03-29T00:17:11.617Z,9.57
2023-03-29T00:17:23.790Z,9.56
2023-03-29T00:17:36.026Z,9.57
2023-03-29T00:17:48.043Z,9.57
2023-03-29T00:18:00.189Z,9.54
2023-03-29T00:18:12.101Z,9.53
2023-03-29T00:18:24.032Z,9.53
2023-03-29T00:18:36.024Z,9.51
2023-03-29T00:18:50.988Z,9.51
2023-03-29T00:19:04.318Z,9.50
2023-03-29T00:19:16.334Z,9.47
2023-03-29T00:19:28.938Z,9.45
2023-03-29T00:19:44.098Z,9.49
2023-03-29T00:19:56.111Z,9.49
2023-03-29T00:20:10.383Z,9.48
2023-03-29T00:20:22.365Z,9.50
2023-03-29T00:20:34.391Z,9.52
2023-03-29T00:20:46.347Z,9.50
2023-03-29T00:21:00.019Z,9.47
2023-03-29T00:21:12.305Z,9.48
2023-03-29T00:21:24.343Z,9.51
2023-03-29T00:21:36.287Z,9.50
2023-03-29T00:21:48.265Z,9.53
2023-03-29T00:22:00.342Z,9.54
2023-03-29T00:22:13.192Z,9.53
2023-03-29T00:22:25.733Z,9.48
2023-03-29T00:22:40.055Z,9.47
2023-03-29T00:22:52.025Z,9.42
2023-03-29T00:23:04.403Z,9.44
2023-03-29T00:23:18.208Z,9.46
2023-03-29T00:23:30.559Z,9.46
2023-03-29T00:23:42.493Z,9.48
2023-03-29T00:23:54.598Z,9.50
2023-03-29T00:24:06.726Z,9.47
2023-03-29T00:24:18.781Z,9.44
2023-03-29T00:24:30.679Z,9.41
2023-03-29T00:24:42.649Z,9.41
2023-03-29T00:24:54.767Z,9.42
2023-03-29T00:25:07.295Z,9.42
2023-03-29T00:25:19.208Z,9.41
2023-03-29T00:25:31.298Z,9.34
2023-03-29T00:25:45.061Z,9.37
2023-03-29T00:25:57.118Z,9.37
2023-03-29T00:26:09.595Z,9.37
2023-03-29T00:26:21.800Z,9.40
2023-03-29T00:26:33.770Z,9.43
2023-03-29T00:26:45.907Z,9.42
2023-03-29T00:26:58.040Z,9.41
2023-03-29T00:27:09.929Z,9.39
2023-03-29T00:27:22.931Z,9.39
2023-03-29T00:27:35.286Z,9.35
2023-03-29T00:27:47.465Z,9.27
2023-03-29T00:27:59.336Z,9.27
2023-03-29T00:28:11.257Z,9.31
2023-03-29T00:28:23.551Z,9.31
2023-03-29T00:28:35.576Z,9.32
2023-03-29T00:28:47.583Z,9.32
2023-03-29T00:28:59.571Z,9.32
2023-03-29T00:29:11.500Z,9.34
2023-03-29T00:29:23.892Z,9.36
2023-03-29T00:29:35.879Z,9.34
2023-03-29T00:29:48.157Z,9.33
2023-03-29T00:30:00.179Z,9.34
2023-03-29T00:30:12.709Z,9.33
2023-03-29T00:30:24.721Z,9.31
2023-03-29T00:30:36.665Z,9.34
2023-03-29T00:30:50.822Z,9.35
2023-03-29T00:31:09.265Z,9.36
2023-03-29T00:31:21.235Z,9.36
2023-03-29T00:31:33.400Z,9.36
2023-03-29T00:31:51.302Z,9.35
2023-03-29T00:32:03.434Z,9.35
2023-03-29T00:32:15.506Z,9.37
2023-03-29T00:32:27.479Z,9.39
2023-03-29T00:32:39.499Z,9.40
2023-03-29T00:32:51.782Z,9.38
2023-03-29T00:33:03.794Z,9.39
2023-03-29T00:33:16.474Z,9.40
2023-03-29T00:33:28.356Z,9.35
2023-03-29T00:33:41.349Z,9.35
2023-03-29T00:33:53.415Z,9.38
2023-03-29T00:34:05.428Z,9.36
2023-03-29T00:34:17.343Z,9.35
2023-03-29T00:34:32.423Z,9.32
2023-03-29T00:34:46.075Z,9.29
2023-03-29T00:35:00.752Z,9.33
2023-03-29T00:35:12.745Z,9.31
2023-03-29T00:35:24.703Z,9.27
2023-03-29T00:35:39.208Z,9.29
2023-03-29T00:35:53.347Z,9.28
2023-03-29T00:36:07.236Z,9.28
2023-03-29T00:36:19.896Z,9.31
2023-03-29T00:36:31.844Z,9.28
2023-03-29T00:36:43.764Z,9.22
2023-03-29T00:36:58.086Z,9.17
2023-03-29T00:37:10.091Z,9.18
2023-03-29T00:37:22.530Z,9.19
2023-03-29T00:37:34.919Z,9.22
2023-03-29T00:37:50.954Z,9.23
2023-03-29T00:38:03.154Z,9.16
2023-03-29T00:38:15.569Z,9.16
2023-03-29T00:38:28.073Z,9.16
2023-03-29T00:38:40.307Z,9.16
2023-03-29T00:38:52.257Z,9.17
2023-03-29T00:39:04.506Z,9.18
2023-03-29T00:39:18.009Z,9.19
2023-03-29T00:39:30.833Z,9.22
2023-03-29T00:39:43.903Z,9.24
2023-03-29T00:39:56.939Z,9.22
2023-03-29T00:40:11.610Z,9.20
2023-03-29T00:40:23.923Z,9.18
2023-03-29T00:40:41.870Z,9.20
2023-03-29T00:40:53.794Z,9.23
2023-03-29T00:41:07.777Z,9.24
2023-03-29T00:41:19.830Z,9.25
2023-03-29T00:41:32.236Z,9.23
2023-03-29T00:41:45.986Z,9.24
2023-03-29T00:41:57.951Z,9.20
2023-03-29T00:42:13.743Z,9.19
2023-03-29T00:42:26.156Z,9.22
2023-03-29T00:42:38.444Z,9.21
2023-03-29T00:42:50.393Z,9.23
2023-03-29T00:43:02.281Z,9.24
2023-03-29T00:43:15.847Z,9.27
2023-03-29T00:43:27.972Z,9.27
2023-03-29T00:44:01.012Z,9.31
2023-03-29T00:44:50.515Z,9.35
2023-03-29T00:45:21.154Z,9.42
2023-03-29T00:45:35.819Z,9.44
2023-03-29T00:45:48.247Z,9.44
2023-03-29T00:46:00.343Z,9.44
2023-03-29T00:46:13.391Z,9.46
2023-03-29T00:46:27.046Z,9.46
2023-03-29T00:46:39.318Z,9.47
2023-03-29T00:46:51.437Z,9.47
2023-03-29T00:47:03.576Z,9.49
2023-03-29T00:47:18.053Z,9.51
2023-03-29T00:47:32.660Z,9.52
2023-03-29T00:47:55.481Z,9.54
2023-03-29T00:48:17.304Z,9.57
2023-03-29T00:48:30.010Z,9.56
2023-03-29T00:48:42.351Z,9.56
2023-03-29T00:48:58.826Z,9.58
2023-03-29T00:49:15.369Z,9.59
2023-03-29T00:49:27.415Z,9.60
2023-03-29T00:49:39.768Z,9.60
2023-03-29T00:49:52.807Z,9.60
2023-03-29T00:50:12.481Z,9.59
2023-03-29T00:50:40.089Z,9.59
2023-03-29T00:50:57.248Z,9.62
2023-03-29T00:51:11.160Z,9.64
2023-03-29T00:51:27.366Z,9.63
2023-03-29T00:51:41.361Z,9.63
2023-03-29T00:51:53.360Z,9.64
2023-03-29T00:52:06.496Z,9.65
2023-03-29T00:52:21.436Z,9.60
2023-03-29T00:52:35.312Z,9.63
2023-03-29T00:52:55.055Z,9.63
2023-03-29T00:53:35.712Z,9.64
2023-03-29T00:53:53.717Z,9.63
2023-03-29T00:54:08.192Z,9.60
2023-03-29T00:54:20.218Z,9.60
2023-03-29T00:54:32.879Z,9.57
2023-03-29T00:54:46.287Z,9.56
2023-03-29T00:55:03.515Z,9.55
2023-03-29T00:55:19.955Z,9.57
2023-03-29T00:55:54.111Z,9.52
2023-03-29T00:56:10.054Z,9.56
2023-03-29T00:56:29.772Z,9.55
2023-03-29T00:56:49.691Z,9.52
2023-03-29T00:57:03.938Z,9.53
2023-03-29T00:57:20.456Z,9.51
2023-03-29T00:57:35.818Z,9.47
2023-03-29T00:57:49.159Z,9.48
2023-03-29T00:58:04.578Z,9.47
2023-03-29T00:58:23.342Z,9.45
2023-03-29T00:58:43.094Z,9.46
2023-03-29T00:59:09.928Z,9.46
2023-03-29T00:59:28.467Z,9.49
2023-03-29T00:59:42.719Z,9.50
2023-03-29T00:59:56.585Z,9.50
2023-03-29T01:00:12.031Z,9.50
2023-03-29T01:00:31.795Z,9.51
2023-03-29T01:01:02.647Z,9.49
2023-03-29T01:01:21.438Z,9.50
2023-03-29T01:01:59.803Z,9.49
2023-03-29T01:02:11.867Z,9.50
2023-03-29T01:02:29.071Z,9.51
2023-03-29T01:02:42.324Z,9.45
2023-03-29T01:02:59.565Z,9.45
2023-03-29T01:03:14.586Z,9.43
2023-03-29T01:03:30.179Z,9.41
2023-03-29T01:03:48.609Z,9.44
2023-03-29T01:04:08.412Z,9.44
2023-03-29T01:04:25.872Z,9.45
2023-03-29T01:04:58.925Z,9.45
2023-03-29T01:05:16.417Z,9.47
2023-03-29T01:05:38.173Z,9.46
2023-03-29T01:05:56.764Z,9.48
2023-03-29T01:06:10.581Z,9.49
2023-03-29T01:06:26.141Z,9.50
2023-03-29T01:06:43.291Z,9.50
2023-03-29T01:07:25.848Z,9.53
2023-03-29T01:07:49.320Z,9.48
2023-03-29T01:08:18.358Z,9.51
2023-03-29T01:08:37.412Z,9.49
2023-03-29T01:08:58.121Z,9.47
2023-03-29T01:09:14.606Z,9.48
2023-03-29T01:09:30.421Z,9.47
2023-03-29T01:09:48.471Z,9.49
2023-03-29T01:10:12.746Z,9.46
2023-03-29T01:10:49.521Z,9.47
2023-03-29T01:11:08.512Z,9.48
2023-03-29T01:11:26.549Z,9.49
2023-03-29T01:11:45.680Z,9.45
2023-03-29T01:12:02.727Z,9.41
2023-03-29T01:12:23.589Z,9.43
2023-03-29T01:12:43.295Z,9.40
2023-03-29T01:13:01.873Z,9.39
2023-03-29T01:13:20.822Z,9.40
2023-03-29T01:13:39.377Z,9.41
2023-03-29T01:14:02.502Z,9.38
2023-03-29T01:14:21.717Z,9.37
2023-03-29T01:14:42.570Z,9.39
2023-03-29T01:14:58.338Z,9.40
2023-03-29T01:15:17.972Z,9.44
2023-03-29T01:15:30.462Z,9.45
2023-03-29T01:15:45.292Z,9.46
2023-03-29T01:15:58.992Z,9.48
2023-03-29T01:16:13.441Z,9.50
2023-03-29T01:16:28.484Z,9.51
2023-03-29T01:16:41.187Z,9.53
2023-03-29T01:16:53.250Z,9.54
2023-03-29T01:17:06.600Z,9.52
2023-03-29T01:17:21.928Z,9.54
2023-03-29T01:17:33.948Z,9.54
2023-03-29T01:17:50.876Z,9.53
2023-03-29T01:18:03.089Z,9.53
2023-03-29T01:18:15.108Z,9.55
2023-03-29T01:18:27.150Z,9.54
2023-03-29T01:18:39.659Z,9.56
2023-03-29T01:18:52.503Z,9.58
2023-03-29T01:19:07.256Z,9.58
2023-03-29T01:19:22.304Z,9.58
2023-03-29T01:19:46.704Z,9.59
2023-03-29T01:20:10.556Z,9.53
2023-03-29T01:20:25.242Z,9.54
2023-03-29T01:20:51.025Z,9.49
2023-03-29T01:21:24.381Z,9.48
2023-03-29T01:22:04.025Z,9.48
2023-03-29T01:22:38.612Z,9.50
2023-03-29T01:23:21.414Z,9.51
2023-03-29T01:23:46.483Z,9.50
2023-03-29T01:24:22.128Z,9.43
2023-03-29T01:24:52.296Z,9.36
2023-03-29T01:25:26.119Z,9.36
2023-03-29T01:25:59.007Z,9.33
2023-03-29T01:26:36.131Z,9.32
2023-03-29T01:27:00.564Z,9.35
2023-03-29T01:27:37.204Z,9.29
2023-03-29T01:27:50.099Z,9.23
2023-03-29T01:28:17.294Z,9.24
2023-03-29T01:28:52.830Z,9.25
2023-03-29T01:29:04.737Z,9.28
2023-03-29T01:29:31.969Z,9.28
2023-03-29T01:30:10.318Z,9.30
2023-03-29T01:30:48.247Z,9.35
2023-03-29T01:31:09.175Z,9.37
2023-03-29T01:31:32.441Z,9.40
2023-03-29T01:31:49.845Z,9.42
2023-03-29T01:32:17.082Z,9.44
2023-03-29T01:32:48.759Z,9.45
2023-03-29T01:33:07.880Z,9.38
2023-03-29T01:33:28.128Z,9.32
2023-03-29T01:33:48.787Z,9.32
2023-03-29T01:34:11.523Z,9.34
2023-03-29T01:34:27.343Z,9.35
2023-03-29T01:35:00.462Z,9.37
2023-03-29T01:35:28.430Z,9.40
2023-03-29T01:35:44.650Z,9.41
2023-03-29T01:36:08.005Z,9.43
2023-03-29T01:36:35.017Z,9.44
2023-03-29T01:36:58.791Z,9.43
2023-03-29T01:37:17.932Z,9.30
2023-03-29T01:37:37.753Z,9.19
2023-03-29T01:38:07.181Z,9.10
2023-03-29T01:38:25.600Z,9.12
2023-03-29T01:38:45.977Z,9.07
2023-03-29T01:39:03.259Z,9.10
2023-03-29T01:39:15.270Z,9.04
2023-03-29T01:39:27.473Z,8.98
2023-03-29T01:39:39.834Z,8.94
2023-03-29T01:39:52.929Z,8.96
2023-03-29T01:40:06.204Z,8.88
2023-03-29T01:40:18.315Z,8.76
2023-03-29T01:40:33.070Z,8.50
2023-03-29T01:40:45.030Z,8.45
2023-03-29T01:40:56.981Z,8.46
2023-03-29T01:41:10.359Z,8.44
2023-03-29T01:41:23.339Z,8.44
2023-03-29T01:41:59.293Z,8.38
2023-03-29T01:42:25.941Z,8.36
2023-03-29T01:43:18.863Z,8.35
2023-03-29T01:43:56.678Z,8.29
2023-03-29T01:44:24.969Z,8.35
2023-03-29T01:44:46.196Z,8.36
2023-03-29T01:45:13.464Z,8.36
2023-03-29T01:45:34.915Z,8.43
2023-03-29T01:46:26.472Z,8.49
2023-03-29T01:46:54.434Z,8.46
2023-03-29T01:47:24.710Z,8.54
2023-03-29T01:48:01.464Z,8.58
2023-03-29T01:48:41.200Z,8.69
2023-03-29T01:48:58.191Z,8.71
2023-03-29T01:49:51.219Z,8.75
2023-03-29T01:50:22.611Z,8.72
2023-03-29T01:50:58.314Z,8.80
2023-03-29T01:51:18.402Z,8.79
2023-03-29T01:51:41.814Z,8.78
2023-03-29T01:52:17.101Z,8.79
2023-03-29T01:52:39.665Z,8.82
2023-03-29T01:52:59.474Z,8.84
2023-03-29T01:53:14.626Z,8.84
2023-03-29T01:53:44.054Z,8.87
2023-03-29T01:54:27.998Z,8.88
2023-03-29T01:54:50.268Z,8.91
2023-03-29T01:55:14.758Z,8.95
2023-03-29T01:55:38.241Z,8.83
2023-03-29T01:55:54.916Z,8.79
2023-03-29T01:56:21.581Z,8.76
2023-03-29T01:56:37.804Z,8.80
2023-03-29T01:56:51.283Z,8.83
2023-03-29T01:57:05.697Z,8.85
2023-03-29T01:57:19.734Z,8.89
2023-03-29T01:57:33.552Z,8.88
2023-03-29T01:57:47.725Z,8.88
2023-03-29T01:58:01.782Z,8.89
2023-03-29T01:58:17.031Z,8.88
2023-03-29T01:58:34.228Z,8.79
2023-03-29T01:58:51.212Z,8.77
2023-03-29T01:59:14.396Z,8.80
2023-03-29T01:59:31.110Z,8.76
2023-03-29T01:59:44.950Z,8.76
2023-03-29T01:59:58.276Z,8.76
2023-03-29T02:00:16.517Z,8.71
2023-03-29T02:00:29.805Z,8.71
2023-03-29T02:00:43.870Z,8.71
2023-03-29T02:00:55.930Z,8.75
2023-03-29T02:01:13.845Z,8.78
2023-03-29T02:01:30.478Z,8.79
2023-03-29T02:01:49.068Z,8.80
2023-03-29T02:02:05.488Z,8.77
2023-03-29T02:02:20.405Z,8.80
2023-03-29T02:02:32.942Z,8.80
2023-03-29T02:02:47.222Z,8.86
2023-03-29T02:03:04.793Z,8.88
2023-03-29T02:03:18.774Z,8.88
2023-03-29T02:03:33.858Z,8.91
2023-03-29T02:03:50.760Z,8.93
2023-03-29T02:04:06.453Z,8.95
2023-03-29T02:04:25.521Z,8.92
2023-03-29T02:04:45.843Z,8.96
2023-03-29T02:04:59.307Z,8.89
2023-03-29T02:05:15.108Z,8.87
2023-03-29T02:05:30.615Z,8.85
2023-03-29T02:05:44.720Z,8.83
2023-03-29T02:05:59.163Z,8.72
2023-03-29T02:06:15.475Z,8.77
2023-03-29T02:06:29.778Z,8.80
2023-03-29T02:06:42.775Z,8.82
2023-03-29T02:06:57.512Z,8.85
2023-03-29T02:07:10.577Z,8.83
2023-03-29T02:07:27.070Z,8.82
2023-03-29T02:07:40.555Z,8.75
2023-03-29T02:07:53.280Z,8.68
2023-03-29T02:08:09.282Z,8.63
2023-03-29T02:08:23.031Z,8.67
2023-03-29T02:08:35.755Z,8.70
2023-03-29T02:08:48.591Z,8.66
2023-03-29T02:09:01.430Z,8.46
2023-03-29T02:09:13.503Z,8.40
2023-03-29T02:09:28.716Z,8.42
2023-03-29T02:09:42.759Z,8.44
2023-03-29T02:09:55.546Z,8.49
2023-03-29T02:10:09.903Z,8.52
2023-03-29T02:10:23.536Z,8.56
2023-03-29T02:10:36.805Z,8.58
2023-03-29T02:10:51.673Z,8.61
2023-03-29T02:11:04.577Z,8.64
2023-03-29T02:11:17.516Z,8.68
2023-03-29T02:11:29.678Z,8.70
2023-03-29T02:11:44.366Z,8.72
2023-03-29T02:12:03.450Z,8.74
2023-03-29T02:12:16.843Z,8.73
2023-03-29T02:12:28.859Z,8.72
2023-03-29T02:12:41.407Z,8.72
2023-03-29T02:12:53.469Z,8.69
2023-03-29T02:13:05.804Z,8.73
2023-03-29T02:13:18.988Z,8.74
2023-03-29T02:13:31.684Z,8.76
2023-03-29T02:13:43.631Z,8.76
2023-03-29T02:13:56.877Z,8.75
2023-03-29T02:14:09.839Z,8.73
2023-03-29T02:14:21.905Z,8.75
2023-03-29T02:14:33.802Z,8.76
2023-03-29T02:14:45.726Z,8.78
2023-03-29T02:14:58.920Z,8.77
2023-03-29T02:15:14.507Z,8.78
2023-03-29T02:15:26.463Z,8.83
2023-03-29T02:15:39.747Z,8.84
2023-03-29T02:15:51.900Z,8.85
2023-03-29T02:16:15.309Z,8.87
2023-03-29T02:16:27.493Z,8.90
2023-03-29T02:16:40.332Z,8.92
2023-03-29T02:16:52.290Z,8.91
2023-03-29T02:17:33.395Z,8.98
2023-03-29T02:17:46.776Z,8.99
2023-03-29T02:17:59.103Z,9.01
2023-03-29T02:18:11.906Z,8.97
2023-03-29T02:18:24.630Z,8.99
2023-03-29T02:18:36.511Z,8.99
2023-03-29T02:18:49.960Z,8.97
2023-03-29T02:19:02.674Z,8.97
2023-03-29T02:19:15.325Z,8.97
2023-03-29T02:19:27.924Z,8.99
2023-03-29T02:19:40.287Z,8.90
2023-03-29T02:20:14.436Z,8.86
2023-03-29T02:20:31.883Z,8.83
2023-03-29T02:20:50.693Z,8.76
2023-03-29T02:21:02.867Z,8.67
2023-03-29T02:21:26.395Z,8.58
2023-03-29T02:21:53.309Z,8.63
2023-03-29T02:22:10.149Z,8.52
2023-03-29T02:22:28.806Z,8.54
2023-03-29T02:22:59.121Z,8.62
2023-03-29T02:23:45.240Z,8.69
2023-03-29T02:24:02.011Z,8.74
2023-03-29T02:24:17.912Z,8.75
2023-03-29T02:24:32.967Z,8.78
2023-03-29T02:24:48.178Z,8.72
2023-03-29T02:25:03.472Z,8.70
2023-03-29T02:25:17.396Z,8.71
2023-03-29T02:25:30.049Z,8.73
2023-03-29T02:25:45.528Z,8.74
2023-03-29T02:25:57.605Z,8.77
2023-03-29T02:26:09.858Z,8.78
2023-03-29T02:26:22.550Z,8.80
2023-03-29T02:26:34.898Z,8.83
2023-03-29T02:26:47.616Z,8.85
2023-03-29T02:27:01.080Z,8.88
2023-03-29T02:27:13.062Z,8.90
2023-03-29T02:27:28.009Z,8.90
2023-03-29T02:27:40.085Z,8.83
2023-03-29T02:27:52.796Z,8.84
2023-03-29T02:28:06.881Z,8.87
2023-03-29T02:28:21.595Z,8.87
2023-03-29T02:28:33.578Z,8.89
2023-03-29T02:28:45.696Z,8.87
2023-03-29T02:29:00.945Z,8.85
2023-03-29T02:29:13.125Z,8.87
2023-03-29T02:29:26.214Z,8.88
2023-03-29T02:29:38.449Z,8.89
2023-03-29T02:29:50.558Z,8.78
2023-03-29T02:30:02.650Z,8.78
2023-03-29T02:30:18.350Z,8.83
2023-03-29T02:30:38.016Z,8.82
2023-03-29T02:31:08.045Z,8.80
2023-03-29T02:31:32.288Z,8.79
2023-03-29T02:31:51.742Z,8.79
2023-03-29T02:32:12.749Z,8.76
2023-03-29T02:32:33.900Z,8.78
2023-03-29T02:32:53.078Z,8.80
2023-03-29T02:33:12.105Z,8.83
2023-03-29T02:33:34.397Z,8.85
2023-03-29T02:33:54.491Z,8.84
2023-03-29T02:34:22.975Z,8.86
2023-03-29T02:34:43.419Z,8.87
2023-03-29T02:35:04.506Z,8.88
2023-03-29T02:35:23.236Z,8.91
2023-03-29T02:35:45.858Z,8.92
2023-03-29T02:36:07.811Z,8.96
2023-03-29T02:36:46.657Z,8.98
2023-03-29T02:37:04.265Z,9.02
2023-03-29T02:37:18.906Z,9.02
2023-03-29T02:37:34.379Z,9.04
2023-03-29T02:37:49.847Z,9.05
2023-03-29T02:38:08.770Z,9.06
2023-03-29T02:38:21.942Z,9.07
2023-03-29T02:38:34.963Z,9.08
2023-03-29T02:38:47.516Z,9.09
2023-03-29T02:39:02.290Z,9.08
2023-03-29T02:39:16.216Z,9.07
2023-03-29T02:39:31.685Z,9.07
2023-03-29T02:39:44.255Z,9.08
2023-03-29T02:39:57.761Z,9.11
2023-03-29T02:40:13.041Z,9.11
2023-03-29T02:40:26.075Z,9.11
2023-03-29T02:40:39.936Z,9.13
2023-03-29T02:40:52.913Z,9.14
2023-03-29T02:41:06.902Z,9.16
2023-03-29T02:41:19.718Z,9.17
2023-03-29T02:41:32.681Z,9.20
2023-03-29T02:41:48.523Z,9.20
2023-03-29T02:42:02.804Z,9.22
2023-03-29T02:42:17.714Z,9.24
2023-03-29T02:42:31.300Z,9.24
2023-03-29T02:42:45.656Z,9.27
2023-03-29T02:42:59.549Z,9.26
2023-03-29T02:43:13.204Z,9.27
2023-03-29T02:43:26.197Z,9.29
2023-03-29T02:43:40.944Z,9.29
2023-03-29T02:43:55.842Z,9.30
2023-03-29T02:44:14.053Z,9.31
2023-03-29T02:44:29.668Z,9.32
2023-03-29T02:44:42.425Z,9.34
2023-03-29T02:44:57.014Z,9.36
2023-03-29T02:45:11.416Z,9.36
2023-03-29T02:45:25.262Z,9.37
2023-03-29T02:45:39.622Z,9.40
2023-03-29T02:45:53.203Z,9.39
2023-03-29T02:46:07.675Z,9.38
2023-03-29T02:46:20.873Z,9.39
2023-03-29T02:46:33.164Z,9.40
2023-03-29T02:46:48.756Z,9.40
2023-03-29T02:47:07.688Z,9.39
2023-03-29T02:47:24.956Z,9.39
2023-03-29T02:47:48.273Z,9.39
2023-03-29T02:48:05.061Z,9.38
2023-03-29T02:48:21.051Z,9.38
2023-03-29T02:48:37.027Z,9.37
2023-03-29T02:48:51.214Z,9.39
2023-03-29T02:49:05.395Z,9.40
2023-03-29T02:49:17.348Z,9.39
2023-03-29T02:49:29.314Z,9.38
2023-03-29T02:49:41.433Z,9.37
2023-03-29T02:49:54.722Z,9.26
2023-03-29T02:50:08.477Z,9.28
2023-03-29T02:50:21.296Z,9.21
2023-03-29T02:50:39.338Z,9.27
2023-03-29T02:50:56.159Z,9.29
2023-03-29T02:51:19.902Z,9.31
2023-03-29T02:51:34.078Z,9.34
2023-03-29T02:51:49.273Z,9.35
2023-03-29T02:52:08.792Z,9.36
2023-03-29T02:52:28.115Z,9.35
2023-03-29T02:52:48.452Z,9.36
2023-03-29T02:53:04.671Z,9.34
2023-03-29T02:53:20.896Z,9.36
2023-03-29T02:53:41.397Z,9.37
2023-03-29T02:54:00.151Z,9.39
2023-03-29T02:54:16.177Z,9.37
2023-03-29T02:54:31.772Z,9.39
2023-03-29T02:54:48.312Z,9.37
2023-03-29T02:55:04.254Z,9.38
2023-03-29T02:55:17.674Z,9.37
2023-03-29T02:55:34.467Z,9.37
2023-03-29T02:55:47.146Z,9.34
2023-03-29T02:56:02.130Z,9.38
2023-03-29T02:56:16.787Z,9.28
2023-03-29T02:56:29.600Z,9.28
2023-03-29T02:56:49.991Z,9.25
2023-03-29T02:57:07.975Z,9.26
2023-03-29T02:57:26.311Z,9.26
2023-03-29T02:57:39.575Z,9.27
2023-03-29T02:57:51.541Z,9.27
2023-03-29T02:58:08.428Z,9.27
2023-03-29T02:58:20.681Z,9.29
2023-03-29T02:58:32.889Z,9.31
2023-03-29T02:58:44.832Z,9.32
2023-03-29T02:58:56.774Z,9.32
2023-03-29T02:59:09.676Z,9.30
2023-03-29T02:59:22.663Z,9.29
2023-03-29T02:59:35.188Z,9.29
2023-03-29T02:59:47.114Z,9.30
2023-03-29T03:00:00.925Z,9.29
2023-03-29T03:00:14.711Z,9.29
2023-03-29T03:00:26.616Z,9.33
2023-03-29T03:00:42.190Z,9.33
2023-03-29T03:00:56.354Z,9.33
2023-03-29T03:01:09.657Z,9.35
2023-03-29T03:01:22.899Z,9.36
2023-03-29T03:01:36.841Z,9.35
2023-03-29T03:01:49.979Z,9.36
2023-03-29T03:02:03.425Z,9.38
2023-03-29T03:02:17.476Z,9.37
2023-03-29T03:02:30.496Z,9.38
2023-03-29T03:02:42.801Z,9.39
2023-03-29T03:02:55.406Z,9.38
2023-03-29T03:03:08.735Z,9.40
2023-03-29T03:03:21.978Z,9.41
2023-03-29T03:03:35.845Z,9.40
2023-03-29T03:03:48.234Z,9.41
2023-03-29T03:04:00.286Z,9.39
2023-03-29T03:04:13.150Z,9.40
2023-03-29T03:04:25.966Z,9.41
2023-03-29T03:04:38.166Z,9.41
2023-03-29T03:04:50.112Z,9.43
2023-03-29T03:05:02.014Z,9.40
2023-03-29T03:05:14.144Z,9.36
2023-03-29T03:05:26.049Z,9.41
2023-03-29T03:05:38.730Z,9.42
2023-03-29T03:05:52.346Z,9.42
2023-03-29T03:06:04.829Z,9.42
2023-03-29T03:06:16.978Z,9.40
2023-03-29T03:06:29.082Z,9.40
2023-03-29T03:06:41.416Z,9.39
2023-03-29T03:06:53.371Z,9.38
2023-03-29T03:07:05.385Z,9.39
2023-03-29T03:07:17.491Z,9.40
2023-03-29T03:07:29.788Z,9.40
2023-03-29T03:07:42.399Z,9.41
2023-03-29T03:07:54.398Z,9.43
2023-03-29T03:08:07.432Z,9.42
2023-03-29T03:08:19.797Z,9.40
2023-03-29T03:08:32.185Z,9.42
2023-03-29T03:08:44.372Z,9.43
2023-03-29T03:08:56.684Z,9.46
2023-03-29T03:09:09.741Z,9.47
2023-03-29T03:09:21.670Z,9.40
2023-03-29T03:09:34.227Z,9.35
2023-03-29T03:09:49.479Z,9.33
2023-03-29T03:10:01.682Z,9.36
2023-03-29T03:10:16.698Z,9.34
2023-03-29T03:10:28.654Z,9.30
2023-03-29T03:10:40.973Z,9.27
2023-03-29T03:10:54.028Z,9.30
2023-03-29T03:11:06.992Z,9.30
2023-03-29T03:11:18.926Z,9.30
2023-03-29T03:11:32.057Z,9.31
2023-03-29T03:11:44.147Z,9.33
2023-03-29T03:11:56.164Z,9.33
2023-03-29T03:12:08.463Z,9.34
2023-03-29T03:12:20.397Z,9.35
2023-03-29T03:12:32.305Z,9.32
2023-03-29T03:12:44.180Z,9.28
2023-03-29T03:12:56.320Z,9.29
2023-03-29T03:13:08.282Z,9.32
2023-03-29T03:13:20.673Z,9.33
2023-03-29T03:13:32.678Z,9.34
2023-03-29T03:13:44.593Z,9.36
2023-03-29T03:13:56.505Z,9.36
2023-03-29T03:14:08.472Z,9.37
2023-03-29T03:14:22.802Z,9.39
2023-03-29T03:14:35.372Z,9.39
2023-03-29T03:14:47.304Z,9.42
2023-03-29T03:15:00.038Z,9.42
2023-03-29T03:15:12.141Z,9.45
2023-03-29T03:15:24.312Z,9.44
2023-03-29T03:15:36.304Z,9.45
2023-03-29T03:15:49.288Z,9.45
2023-03-29T03:16:01.502Z,9.48
2023-03-29T03:16:13.464Z,9.48
2023-03-29T03:16:26.339Z,9.49
2023-03-29T03:16:38.621Z,9.47
2023-03-29T03:16:50.642Z,9.49
2023-03-29T03:17:04.536Z,9.48
2023-03-29T03:17:18.694Z,9.49
2023-03-29T03:17:33.080Z,9.48
2023-03-29T03:17:46.638Z,9.50
2023-03-29T03:17:58.696Z,9.50
2023-03-29T03:18:10.826Z,9.51
2023-03-29T03:18:23.336Z,9.51
2023-03-29T03:18:35.265Z,9.52
2023-03-29T03:18:48.613Z,9.53
2023-03-29T03:19:00.932Z,9.54
2023-03-29T03:19:13.235Z,9.54
2023-03-29T03:19:25.196Z,9.56
2023-03-29T03:19:37.191Z,9.55
2023-03-29T03:19:49.832Z,9.54
2023-03-29T03:20:01.889Z,9.55
2023-03-29T03:20:13.836Z,9.50
2023-03-29T03:20:26.498Z,9.54
2023-03-29T03:20:40.035Z,9.52
2023-03-29T03:21:01.907Z,9.50
2023-03-29T03:21:14.197Z,9.50
2023-03-29T03:21:28.077Z,9.50
2023-03-29T03:21:40.039Z,9.55
2023-03-29T03:21:52.101Z,9.52
2023-03-29T03:22:05.936Z,9.45
2023-03-29T03:22:18.343Z,9.38
2023-03-29T03:22:30.250Z,9.35
2023-03-29T03:22:45.115Z,9.30
2023-03-29T03:22:57.716Z,9.20
2023-03-29T03:23:09.652Z,9.19
2023-03-29T03:23:21.564Z,9.17
2023-03-29T03:23:33.609Z,9.15
2023-03-29T03:23:47.244Z,9.17
2023-03-29T03:23:59.208Z,9.15
2023-03-29T03:24:11.385Z,9.14
2023-03-29T03:24:23.288Z,9.17
2023-03-29T03:24:35.737Z,9.16
2023-03-29T03:24:49.140Z,9.13
2023-03-29T03:25:01.298Z,9.18
2023-03-29T03:25:13.222Z,9.10
2023-03-29T03:25:25.633Z,9.12
2023-03-29T03:25:37.571Z,9.12
2023-03-29T03:25:49.671Z,9.14
2023-03-29T03:26:01.956Z,9.16
2023-03-29T03:26:15.834Z,9.17
2023-03-29T03:26:29.993Z,9.18
2023-03-29T03:26:42.351Z,9.19
2023-03-29T03:26:54.795Z,9.20
2023-03-29T03:27:08.467Z,9.22
2023-03-29T03:27:20.593Z,9.24
2023-03-29T03:27:33.930Z,9.25
2023-03-29T03:27:45.846Z,9.26
2023-03-29T03:27:57.833Z,9.29
2023-03-29T03:28:10.160Z,9.29
2023-03-29T03:28:24.302Z,9.29
2023-03-29T03:28:36.249Z,9.30
2023-03-29T03:28:48.321Z,9.32
2023-03-29T03:29:00.877Z,9.29
2023-03-29T03:29:14.283Z,9.25
2023-03-29T03:29:26.352Z,9.25
2023-03-29T03:29:38.655Z,9.23
2023-03-29T03:29:50.718Z,9.25
2023-03-29T03:30:05.408Z,9.25
2023-03-29T03:30:18.482Z,9.26
2023-03-29T03:30:30.417Z,9.25
2023-03-29T03:30:42.413Z,9.26
2023-03-29T03:30:54.411Z,9.26
2023-03-29T03:31:06.865Z,9.26
2023-03-29T03:31:19.568Z,9.28